Аэропорт: Ульяновск-Восточный. Ульяновск

ICAO: UWLW

METAR:
2021-01-19 12:00:00
UWLW 191200Z 31003MPS 5000 -SN BR OVC011 M18/M21 Q1013 R02/491042 NOSIG RMK QFE752
METAR:
2021-01-19 10:45:00
TAF UWLW 191045Z 1912/2012 30003MPS 6000 -SN OVC010 TXM18/1912Z TNM23/2003Z TEMPO 1912/2012 34003G08MPS 1500 SN BR OVC005